Barber, Kansas
Current Conditions -  °F | °C
As of 3:35 PM on Friday 19 Dec 2014 (Local Time) from KPTS Reporting Station
Haze Haze  
Wind Chill: 38°   Ceiling: 300
Heat Index: 38°   Visibility: 4mi
Dew Point: 38°   Wind: 3mph
Humidity: 100%   Direction: 30°NNE
Pressure: 30.18"   Gusts: NA
Location:  37.5542°N, 94.6826°W
Report Text: KPTS 192135Z AUTO 03003KT 4SM BR OVC003 04/04 A3018 RMK AO2 T00350036
Loading
Personal Weather Stations






























Interactive Weather Map New forecast layout! Learn more

10-Day Weather Forecast

Advertisements
Track Severe Weather on mobile